CST,Max TemperatureF,Mean TemperatureF,Min TemperatureF,Max Dew PointF,MeanDew PointF,Min DewpointF,Max Humidity, Mean Humidity, Min Humidity, Max Sea Level PressureIn, Mean Sea Level PressureIn, Min Sea Level PressureIn, Max VisibilityMiles, Mean VisibilityMiles, Min VisibilityMiles, Max Wind SpeedMPH, Mean Wind SpeedMPH, Max Gust SpeedMPH,PrecipitationIn, CloudCover, Events, WindDirDegrees
2013-1-1,36,30,24,36,33,23,100,92,84,30.25,30.12,30.01,8,2,0,10,5,14,T,8,Fog-Snow,353
2013-1-2,37,28,19,27,21,17,96,78,59,30.28,30.24,30.17,10,7,2,9,3,12,0.00,2,,300
2013-1-3,42,33,24,26,23,20,88,70,51,30.44,30.38,30.27,10,10,7,12,5,15,0.00,1,,291
2013-1-4,46,35,24,24,21,18,92,63,34,30.48,30.41,30.33,10,10,9,13,3,17,0.00,0,,265
2013-1-5,44,36,28,31,27,21,78,65,52,30.34,30.27,30.20,10,10,10,14,5,22,0.00,6,,214
2013-1-6,46,37,27,31,24,19,85,63,40,30.39,30.31,30.21,10,10,10,18,7,24,0.00,0,,302
2013-1-7,53,37,20,26,21,18,92,61,30,30.39,30.28,30.16,10,10,9,17,7,21,0.00,0,,143
2013-1-8,57,43,29,41,33,22,78,62,46,30.21,30.15,30.09,10,10,10,20,8,23,0.01,5,Rain,144
2013-1-9,55,50,44,44,41,37,90,77,57,30.38,30.31,30.23,10,10,8,9,2,20,0.04,6,Rain,80
2013-1-10,51,47,42,48,45,42,100,93,86,30.26,30.01,29.84,10,2,0,16,7,24,0.27,7,Fog-Rain,120
2013-1-11,67,54,41,47,44,41,92,67,42,29.90,29.85,29.79,10,10,10,21,9,25,0.00,1,,174
2013-1-12,58,45,31,50,39,28,100,83,66,29.92,29.85,29.78,10,8,2,22,8,32,0.95,7,Rain,321
2013-1-13,32,25,17,30,21,13,100,84,68,30.38,30.14,29.93,10,10,6,17,10,25,T,5,,312
2013-1-14,30,21,12,16,12,9,88,65,42,30.50,30.40,30.33,10,10,4,10,3,15,T,2,Snow,353
2013-1-15,31,23,14,22,17,12,88,79,69,30.36,30.26,30.17,10,10,5,9,4,13,T,4,Snow,344
2013-1-16,44,32,19,20,16,4,92,60,28,30.22,30.16,30.10,10,10,7,12,5,16,0.00,1,,290
2013-1-17,45,38,30,31,25,18,75,62,49,30.50,30.36,30.19,10,10,10,15,7,20,0.00,1,,314
2013-1-18,60,42,23,28,23,16,92,55,18,30.53,30.39,30.22,10,10,9,15,7,22,0.00,0,,162
2013-1-19,65,53,40,34,29,21,56,41,26,30.20,30.15,30.07,10,10,10,20,8,29,0.00,0,,238
2013-1-20,56,45,33,34,27,18,70,51,32,30.29,30.21,30.14,10,10,10,13,5,18,0.00,0,,16
2013-1-21,50,37,24,17,13,10,60,41,21,30.39,30.33,30.27,10,10,10,12,5,17,0.00,0,,333
2013-1-22,38,29,20,18,16,11,71,49,27,30.37,30.31,30.26,10,10,10,16,6,18,0.00,1,,129
2013-1-23,64,44,24,40,30,18,76,56,36,30.28,30.22,30.14,10,10,10,10,4,14,0.00,1,,208
2013-1-24,42,34,26,31,17,11,75,57,38,30.40,30.29,30.18,10,10,9,20,11,25,0.00,8,,95
2013-1-25,48,37,25,34,28,23,100,77,53,30.27,30.18,30.11,10,5,1,13,5,20,0.00,5,,307
2013-1-26,55,43,30,28,24,20,75,52,28,30.31,30.25,30.19,10,10,9,18,9,21,0.00,3,,146
2013-1-27,60,52,43,55,46,30,100,77,53,30.17,30.06,29.97,10,9,4,22,12,31,0.02,7,Rain,162
2013-1-28,72,66,59,59,58,55,84,73,61,30.00,29.94,29.86,10,10,10,23,13,31,0.00,4,,186
2013-1-29,67,59,50,63,56,47,100,87,73,29.86,29.59,29.45,10,6,1,28,13,36,2.07,8,Rain-Thunderstorm,206
2013-1-30,51,38,25,45,30,19,89,79,68,30.06,29.69,29.45,10,10,6,26,13,40,0.01,7,,291
2013-1-31,52,36,19,25,18,7,81,56,30,30.38,30.17,30.03,10,10,10,22,10,31,T,2,,307